createdAt,value
2019-05-16T00:01:02.184Z,7.60
2019-05-16T00:03:30.599Z,7.50
2019-05-16T00:05:58.989Z,7.50
2019-05-16T00:08:28.606Z,7.40
2019-05-16T00:10:58.153Z,7.40
2019-05-16T00:13:28.019Z,7.40
2019-05-16T00:15:58.671Z,7.20
2019-05-16T00:18:28.469Z,7.20
2019-05-16T00:20:58.424Z,7.20
2019-05-16T00:23:28.890Z,7.10
2019-05-16T00:25:58.597Z,7.10
2019-05-16T00:28:28.602Z,7.10
2019-05-16T00:30:59.169Z,7.10
2019-05-16T00:33:28.658Z,7.00
2019-05-16T00:36:03.407Z,7.10
2019-05-16T00:38:27.742Z,7.10
2019-05-16T00:40:56.447Z,7.10
2019-05-16T00:43:24.877Z,7.10
2019-05-16T00:45:53.264Z,7.20
2019-05-16T00:48:21.743Z,7.20
2019-05-16T00:50:50.140Z,7.20
2019-05-16T00:53:18.554Z,7.10
2019-05-16T00:55:47.953Z,7.10
2019-05-16T00:58:18.816Z,7.00
2019-05-16T01:00:50.469Z,7.00
2019-05-16T01:03:20.263Z,7.00
2019-05-16T01:05:48.896Z,6.90
2019-05-16T01:08:18.804Z,6.70
2019-05-16T01:10:50.933Z,6.60
2019-05-16T01:13:18.634Z,6.50
2019-05-16T01:15:48.696Z,6.50
2019-05-16T01:18:18.765Z,6.40
2019-05-16T01:20:48.108Z,6.40
2019-05-16T01:23:18.216Z,6.30
2019-05-16T01:25:48.452Z,6.30
2019-05-16T01:28:17.979Z,6.20
2019-05-16T01:30:48.807Z,6.10
2019-05-16T01:33:18.948Z,6.10
2019-05-16T01:35:47.785Z,6.10
2019-05-16T01:38:18.118Z,6.10
2019-05-16T01:40:48.878Z,6.10
2019-05-16T01:43:17.841Z,6.10
2019-05-16T01:45:48.453Z,5.90
2019-05-16T01:48:18.751Z,5.90
2019-05-16T01:50:48.135Z,5.90
2019-05-16T01:53:17.843Z,5.80
2019-05-16T01:55:48.615Z,5.70
2019-05-16T01:58:19.835Z,5.60
2019-05-16T02:01:00.169Z,5.60
2019-05-16T02:03:18.970Z,5.50
2019-05-16T02:05:48.101Z,5.40
2019-05-16T02:08:18.184Z,5.40
2019-05-16T02:10:47.895Z,5.30
2019-05-16T02:13:17.990Z,5.40
2019-05-16T02:15:48.794Z,5.30
2019-05-16T02:18:18.463Z,5.20
2019-05-16T02:20:48.014Z,5.20
2019-05-16T02:23:18.521Z,5.10
2019-05-16T02:25:49.052Z,5.00
2019-05-16T02:28:16.890Z,5.00
2019-05-16T02:30:45.313Z,5.00
2019-05-16T02:33:13.707Z,5.00
2019-05-16T02:35:42.135Z,5.00
2019-05-16T02:38:11.399Z,5.00
2019-05-16T02:40:41.729Z,5.00
2019-05-16T02:43:12.500Z,4.90
2019-05-16T02:45:41.418Z,4.90
2019-05-16T02:48:10.957Z,5.00
2019-05-16T02:50:41.457Z,4.90
2019-05-16T02:53:12.577Z,4.70
2019-05-16T02:55:41.065Z,4.70
2019-05-16T02:58:11.429Z,4.60
2019-05-16T03:00:42.528Z,4.70
2019-05-16T03:03:12.053Z,4.80
2019-05-16T03:05:42.065Z,4.80
2019-05-16T03:08:12.227Z,4.80
2019-05-16T03:10:41.587Z,4.90
2019-05-16T03:13:11.263Z,4.80
2019-05-16T03:15:40.987Z,4.80
2019-05-16T03:18:12.077Z,4.80
2019-05-16T03:20:40.987Z,4.70
2019-05-16T03:23:11.306Z,4.70
2019-05-16T03:25:41.834Z,4.60
2019-05-16T03:28:11.131Z,4.60
2019-05-16T03:30:44.683Z,4.60
2019-05-16T03:33:19.098Z,4.60
2019-05-16T03:35:44.563Z,4.70
2019-05-16T03:38:12.217Z,4.70
2019-05-16T03:40:41.283Z,4.80
2019-05-16T03:43:11.690Z,4.80
2019-05-16T03:45:41.792Z,4.90
2019-05-16T03:48:12.004Z,4.90
2019-05-16T03:50:41.365Z,5.00
2019-05-16T03:53:11.736Z,5.10
2019-05-16T03:55:40.910Z,5.10
2019-05-16T03:58:11.731Z,5.20
2019-05-16T04:00:52.487Z,5.20
2019-05-16T04:03:21.444Z,5.30
2019-05-16T04:05:52.553Z,5.40
2019-05-16T04:08:24.524Z,5.50
2019-05-16T04:10:52.093Z,5.60
2019-05-16T04:13:21.715Z,5.70
2019-05-16T04:15:52.306Z,5.90
2019-05-16T04:18:22.004Z,6.10
2019-05-16T04:20:52.294Z,6.30
2019-05-16T04:23:21.296Z,6.50
2019-05-16T04:25:52.276Z,6.60
2019-05-16T04:28:21.876Z,6.80
2019-05-16T04:30:50.949Z,7.00
2019-05-16T04:33:22.015Z,7.10
2019-05-16T04:35:52.586Z,7.20
2019-05-16T04:38:31.633Z,7.20
2019-05-16T04:40:51.633Z,7.40
2019-05-16T04:43:22.182Z,7.50
2019-05-16T04:45:52.186Z,7.60
2019-05-16T04:48:22.417Z,7.70
2019-05-16T04:50:51.838Z,7.80
2019-05-16T04:53:21.304Z,7.80
2019-05-16T04:55:51.594Z,7.90
2019-05-16T04:58:23.284Z,7.90
2019-05-16T05:00:51.823Z,8.00
2019-05-16T05:03:21.375Z,8.10
2019-05-16T05:05:51.281Z,8.20
2019-05-16T05:08:21.995Z,8.20
2019-05-16T05:10:51.293Z,8.30
2019-05-16T05:13:22.067Z,8.40
2019-05-16T05:15:51.079Z,8.40
2019-05-16T05:18:21.385Z,8.50
2019-05-16T05:20:52.387Z,8.60
2019-05-16T05:23:20.947Z,8.60
2019-05-16T05:25:51.416Z,8.70
2019-05-16T05:28:21.067Z,8.80
2019-05-16T05:30:50.338Z,8.80
2019-05-16T05:33:21.135Z,9.00
2019-05-16T05:35:50.654Z,9.10
2019-05-16T05:38:21.164Z,9.10
2019-05-16T05:40:51.322Z,9.20
2019-05-16T05:43:21.668Z,9.40
2019-05-16T05:45:51.193Z,9.40
2019-05-16T05:48:21.551Z,9.50
2019-05-16T05:50:50.964Z,9.60
2019-05-16T05:53:20.938Z,9.70
2019-05-16T05:55:51.029Z,9.80
2019-05-16T05:58:20.899Z,9.90
2019-05-16T06:00:51.760Z,10.00
2019-05-16T06:03:22.564Z,10.10
2019-05-16T06:05:50.488Z,10.30
2019-05-16T06:08:20.470Z,10.30
2019-05-16T06:10:50.498Z,10.50
2019-05-16T06:13:20.623Z,10.50
2019-05-16T06:15:50.961Z,10.60
2019-05-16T06:18:20.138Z,10.80
2019-05-16T06:20:51.353Z,10.80
2019-05-16T06:23:20.593Z,10.90
2019-05-16T06:25:50.752Z,10.90
2019-05-16T06:28:20.568Z,10.90
2019-05-16T06:30:51.698Z,10.90
2019-05-16T06:33:20.183Z,10.90
2019-05-16T06:35:50.888Z,10.90
2019-05-16T06:38:20.987Z,11.10
2019-05-16T06:40:52.156Z,11.10
2019-05-16T06:43:20.450Z,11.30
2019-05-16T06:45:51.320Z,11.40
2019-05-16T06:48:21.302Z,11.60
2019-05-16T06:50:51.412Z,11.70
2019-05-16T06:53:20.913Z,11.80
2019-05-16T06:55:49.963Z,11.80
2019-05-16T06:58:21.715Z,11.90
2019-05-16T07:00:52.107Z,11.90
2019-05-16T07:03:20.444Z,11.80
2019-05-16T07:05:50.406Z,12.00
2019-05-16T07:08:20.640Z,12.00
2019-05-16T07:10:50.773Z,12.30
2019-05-16T07:13:19.754Z,12.50
2019-05-16T07:15:50.228Z,12.70
2019-05-16T07:18:20.770Z,12.60
2019-05-16T07:20:50.927Z,12.60
2019-05-16T07:23:21.067Z,12.50
2019-05-16T07:25:50.542Z,12.70
2019-05-16T07:28:20.848Z,12.90
2019-05-16T07:30:50.027Z,13.20
2019-05-16T07:33:21.236Z,13.10
2019-05-16T07:35:51.299Z,13.40
2019-05-16T07:38:20.349Z,13.70
2019-05-16T07:40:51.255Z,13.70
2019-05-16T07:43:20.476Z,13.80
2019-05-16T07:45:51.278Z,13.90
2019-05-16T07:48:21.441Z,13.80
2019-05-16T07:50:50.243Z,14.00
2019-05-16T07:53:21.099Z,14.10
2019-05-16T07:55:50.957Z,14.30
2019-05-16T07:58:21.826Z,14.40
2019-05-16T08:00:57.790Z,14.60
2019-05-16T08:03:20.061Z,14.60
2019-05-16T08:05:51.278Z,14.50
2019-05-16T08:08:23.248Z,14.40
2019-05-16T08:10:50.802Z,14.50
2019-05-16T08:13:21.203Z,14.80
2019-05-16T08:15:50.277Z,14.80
2019-05-16T08:18:21.270Z,14.60
2019-05-16T08:20:52.359Z,14.40
2019-05-16T08:25:50.702Z,14.30
2019-05-16T08:30:52.779Z,13.90
2019-05-16T08:33:21.835Z,13.70
2019-05-16T08:35:51.555Z,13.80
2019-05-16T08:38:21.427Z,13.80
2019-05-16T08:41:06.492Z,13.90
2019-05-16T08:43:21.745Z,13.90
2019-05-16T08:45:51.511Z,13.80
2019-05-16T08:48:23.089Z,13.70
2019-05-16T08:50:06.462Z,14.20
2019-05-16T08:50:54.744Z,13.50
2019-05-16T08:53:21.493Z,13.50
2019-05-16T08:55:50.793Z,13.60
2019-05-16T08:58:22.532Z,13.70
2019-05-16T09:00:55.436Z,13.90
2019-05-16T09:03:22.178Z,14.00
2019-05-16T09:05:53.266Z,14.00
2019-05-16T09:08:20.128Z,14.20
2019-05-16T09:10:39.168Z,14.10
2019-05-16T09:10:59.657Z,14.30
2019-05-16T09:13:18.650Z,14.20
2019-05-16T09:15:48.062Z,14.50
2019-05-16T09:18:17.883Z,14.70
2019-05-16T09:20:46.550Z,14.60
2019-05-16T09:23:17.956Z,14.80
2019-05-16T09:25:48.919Z,14.90
2019-05-16T09:28:16.944Z,15.10
2019-05-16T09:30:46.888Z,15.40
2019-05-16T09:33:17.646Z,15.80
2019-05-16T09:35:47.642Z,16.10
2019-05-16T09:38:18.997Z,16.30
2019-05-16T09:40:47.808Z,16.60
2019-05-16T09:43:17.899Z,16.40
2019-05-16T09:45:47.247Z,16.30
2019-05-16T09:48:18.826Z,16.30
2019-05-16T09:50:46.886Z,16.40
2019-05-16T09:53:17.130Z,16.50
2019-05-16T09:55:47.245Z,16.80
2019-05-16T09:58:18.133Z,16.80
2019-05-16T10:00:47.512Z,17.00
2019-05-16T10:03:20.421Z,17.10
2019-05-16T10:05:46.951Z,17.20
2019-05-16T10:08:17.350Z,17.40
2019-05-16T10:10:45.799Z,17.30
2019-05-16T10:13:14.267Z,17.70
2019-05-16T10:15:42.675Z,18.20
2019-05-16T10:18:11.130Z,18.40
2019-05-16T10:20:39.532Z,18.00
2019-05-16T10:23:14.246Z,17.70
2019-05-16T10:25:38.238Z,17.70
2019-05-16T10:28:06.718Z,18.30
2019-05-16T10:30:37.498Z,18.30
2019-05-16T10:33:07.135Z,18.60
2019-05-16T10:35:37.211Z,18.70
2019-05-16T10:38:05.784Z,18.70
2019-05-16T10:40:36.693Z,19.10
2019-05-16T10:43:06.876Z,19.20
2019-05-16T10:45:36.698Z,19.20
2019-05-16T10:48:04.620Z,19.30
2019-05-16T10:50:33.079Z,19.30
2019-05-16T10:53:22.362Z,19.20
2019-05-16T10:55:31.622Z,19.50
2019-05-16T10:58:00.032Z,19.20
2019-05-16T11:00:57.535Z,19.20
2019-05-16T11:02:58.947Z,19.30
2019-05-16T11:05:33.738Z,19.10
2019-05-16T11:07:57.828Z,18.90
2019-05-16T11:10:29.405Z,18.60
2019-05-16T11:12:59.559Z,18.70
2019-05-16T11:15:27.753Z,18.60
2019-05-16T11:17:57.405Z,18.90
2019-05-16T11:20:27.027Z,19.00
2019-05-16T11:22:57.127Z,18.80
2019-05-16T11:25:31.852Z,18.80
2019-05-16T11:27:57.529Z,18.90
2019-05-16T11:30:28.014Z,18.60
2019-05-16T11:32:56.764Z,18.80
2019-05-16T11:35:27.207Z,18.80
2019-05-16T11:37:57.106Z,19.00
2019-05-16T11:40:25.639Z,18.90
2019-05-16T11:43:06.519Z,18.80
2019-05-16T11:45:24.305Z,18.70
2019-05-16T11:47:52.717Z,18.70
2019-05-16T11:50:21.360Z,18.40
2019-05-16T11:52:49.757Z,18.20
2019-05-16T11:55:18.316Z,18.00
2019-05-16T11:57:47.614Z,17.80
2019-05-16T12:00:18.373Z,17.80
2019-05-16T12:02:47.828Z,17.70
2019-05-16T12:05:17.198Z,18.00
2019-05-16T12:07:48.411Z,17.80
2019-05-16T12:10:16.677Z,17.80
2019-05-16T12:12:45.112Z,18.20
2019-05-16T12:15:17.483Z,18.60
2019-05-16T12:17:59.166Z,18.70
2019-05-16T12:20:16.683Z,18.70
2019-05-16T12:22:44.908Z,18.70
2019-05-16T12:25:13.371Z,18.80
2019-05-16T12:27:42.607Z,18.90
2019-05-16T12:30:13.796Z,19.20
2019-05-16T12:32:41.988Z,19.40
2019-05-16T12:35:10.815Z,19.60
2019-05-16T12:37:39.239Z,19.30
2019-05-16T12:40:08.081Z,19.20
2019-05-16T12:42:36.672Z,19.30
2019-05-16T12:45:08.951Z,19.30
2019-05-16T12:47:37.752Z,19.20
2019-05-16T12:50:10.944Z,19.00
2019-05-16T12:52:39.808Z,19.20
2019-05-16T12:55:08.627Z,19.20
2019-05-16T12:57:38.238Z,19.20
2019-05-16T13:00:15.317Z,19.60
2019-05-16T13:02:38.857Z,19.80
2019-05-16T13:05:07.900Z,19.90
2019-05-16T13:07:37.697Z,19.80
2019-05-16T13:10:07.713Z,19.80
2019-05-16T13:12:37.863Z,19.70
2019-05-16T13:15:07.248Z,19.70
2019-05-16T13:17:37.211Z,19.40
2019-05-16T13:20:07.950Z,19.10
2019-05-16T13:22:38.356Z,19.20
2019-05-16T13:25:07.716Z,18.90
2019-05-16T13:27:37.319Z,18.80
2019-05-16T13:30:09.206Z,18.70
2019-05-16T13:32:37.705Z,18.70
2019-05-16T13:35:07.630Z,18.80
2019-05-16T13:37:36.402Z,19.20
2019-05-16T13:40:08.536Z,19.50
2019-05-16T13:42:37.194Z,19.50
2019-05-16T13:45:09.355Z,19.40
2019-05-16T13:47:37.961Z,19.30
2019-05-16T13:50:12.222Z,19.50
2019-05-16T13:52:38.988Z,19.70
2019-05-16T13:55:09.468Z,19.80
2019-05-16T13:57:40.947Z,19.70
2019-05-16T14:00:10.554Z,19.00
2019-05-16T14:02:39.036Z,18.70
2019-05-16T14:05:08.585Z,18.90
2019-05-16T14:07:37.615Z,18.80
2019-05-16T14:10:07.581Z,19.00
2019-05-16T14:12:36.675Z,19.00
2019-05-16T14:15:08.209Z,19.40
2019-05-16T14:17:37.192Z,19.70
2019-05-16T14:20:14.288Z,19.60
2019-05-16T14:22:37.299Z,19.50
2019-05-16T14:25:07.238Z,19.20
2019-05-16T14:27:38.280Z,19.10
2019-05-16T14:30:08.345Z,19.00
2019-05-16T14:32:40.970Z,19.00
2019-05-16T14:35:08.655Z,18.70
2019-05-16T14:37:37.990Z,18.80
2019-05-16T14:40:07.592Z,18.80
2019-05-16T14:42:38.786Z,18.90
2019-05-16T14:45:13.335Z,18.60
2019-05-16T14:47:42.098Z,18.60
2019-05-16T14:50:13.850Z,18.60
2019-05-16T14:52:40.982Z,18.60
2019-05-16T14:55:09.524Z,18.50
2019-05-16T14:57:37.928Z,18.40
2019-05-16T15:00:08.334Z,18.30
2019-05-16T15:02:38.405Z,18.30
2019-05-16T15:05:08.180Z,18.40
2019-05-16T15:07:37.573Z,18.40
2019-05-16T15:10:07.957Z,18.20
2019-05-16T15:12:37.581Z,18.20
2019-05-16T15:15:19.409Z,18.20
2019-05-16T15:17:39.130Z,18.30
2019-05-16T15:20:10.382Z,18.40
2019-05-16T15:22:38.816Z,18.60
2019-05-16T15:25:08.198Z,18.50
2019-05-16T15:27:37.288Z,18.60
2019-05-16T15:30:09.674Z,18.60
2019-05-16T15:32:38.716Z,18.50
2019-05-16T15:35:09.258Z,18.50
2019-05-16T15:37:37.760Z,18.30
2019-05-16T15:40:09.779Z,18.20
2019-05-16T15:42:38.193Z,18.10
2019-05-16T15:45:07.723Z,18.20
2019-05-16T15:47:37.736Z,18.20
2019-05-16T15:50:08.995Z,18.30
2019-05-16T15:52:38.503Z,18.40
2019-05-16T15:55:10.546Z,18.30
2019-05-16T15:57:38.942Z,18.30
2019-05-16T16:00:10.766Z,18.50
2019-05-16T16:02:39.471Z,18.30
2019-05-16T16:05:08.307Z,18.30
2019-05-16T16:07:38.087Z,18.30
2019-05-16T16:10:07.362Z,18.20
2019-05-16T16:12:37.491Z,18.20
2019-05-16T16:15:07.754Z,18.10
2019-05-16T16:17:38.042Z,17.70
2019-05-16T16:20:10.521Z,17.70
2019-05-16T16:22:37.839Z,17.80
2019-05-16T16:25:07.663Z,17.80
2019-05-16T16:27:36.088Z,17.80
2019-05-16T16:30:07.303Z,18.00
2019-05-16T16:32:37.905Z,18.10
2019-05-16T16:35:07.940Z,18.20
2019-05-16T16:37:37.728Z,18.20
2019-05-16T16:40:11.280Z,18.20
2019-05-16T16:42:37.739Z,18.10
2019-05-16T16:45:09.499Z,18.00
2019-05-16T16:47:38.173Z,18.00
2019-05-16T16:50:08.367Z,18.00
2019-05-16T16:52:37.923Z,17.90
2019-05-16T16:55:08.292Z,17.80
2019-05-16T16:57:38.364Z,17.50
2019-05-16T17:00:07.803Z,17.50
2019-05-16T17:02:37.381Z,17.40
2019-05-16T17:05:11.505Z,17.40
2019-05-16T17:07:37.479Z,17.30
2019-05-16T17:10:07.738Z,17.30
2019-05-16T17:12:41.497Z,17.10
2019-05-16T17:15:08.840Z,17.00
2019-05-16T17:17:37.735Z,17.00
2019-05-16T17:20:07.931Z,17.00
2019-05-16T17:22:37.678Z,16.90
2019-05-16T17:25:08.259Z,16.80
2019-05-16T17:27:37.697Z,16.90
2019-05-16T17:30:17.021Z,16.90
2019-05-16T17:32:45.423Z,16.80
2019-05-16T17:35:18.553Z,16.80
2019-05-16T17:37:46.817Z,16.70
2019-05-16T17:40:17.589Z,16.70
2019-05-16T17:42:47.661Z,16.60
2019-05-16T17:45:18.101Z,16.60
2019-05-16T17:47:46.944Z,16.60
2019-05-16T17:50:17.306Z,16.50
2019-05-16T17:52:47.696Z,16.50
2019-05-16T17:55:17.402Z,16.40
2019-05-16T17:57:46.270Z,16.30
2019-05-16T18:00:24.205Z,16.30
2019-05-16T18:02:46.672Z,16.30
2019-05-16T18:05:17.097Z,16.30
2019-05-16T18:07:47.485Z,16.20
2019-05-16T18:10:17.978Z,16.20
2019-05-16T18:12:48.058Z,16.00
2019-05-16T18:15:19.740Z,16.00
2019-05-16T18:17:48.122Z,16.00
2019-05-16T18:20:17.273Z,16.00
2019-05-16T18:22:47.175Z,16.00
2019-05-16T18:25:16.408Z,15.90
2019-05-16T18:27:44.975Z,15.90
2019-05-16T18:30:16.492Z,15.90
2019-05-16T18:32:44.436Z,15.80
2019-05-16T18:35:13.081Z,15.80
2019-05-16T18:37:41.464Z,15.70
2019-05-16T18:40:10.211Z,15.70
2019-05-16T18:42:38.608Z,15.60
2019-05-16T18:45:10.585Z,15.60
2019-05-16T18:47:38.983Z,15.60
2019-05-16T18:50:08.537Z,15.50
2019-05-16T18:52:37.652Z,15.30
2019-05-16T18:55:08.499Z,15.20
2019-05-16T18:57:37.856Z,15.10
2019-05-16T19:00:10.830Z,15.00
2019-05-16T19:02:39.478Z,14.90
2019-05-16T19:05:08.226Z,14.90
2019-05-16T19:07:37.064Z,14.90
2019-05-16T19:10:09.230Z,14.80
2019-05-16T19:12:37.629Z,14.80
2019-05-16T19:15:10.316Z,14.80
2019-05-16T19:17:38.789Z,14.80
2019-05-16T19:20:08.037Z,14.70
2019-05-16T19:22:37.216Z,14.60
2019-05-16T19:25:07.034Z,14.60
2019-05-16T19:27:36.956Z,14.50
2019-05-16T19:30:07.439Z,14.40
2019-05-16T19:32:38.985Z,14.40
2019-05-16T19:35:07.380Z,14.30
2019-05-16T19:37:40.317Z,14.30
2019-05-16T19:40:07.199Z,14.30
2019-05-16T19:42:36.873Z,14.30
2019-05-16T19:45:07.427Z,14.30
2019-05-16T19:47:40.751Z,14.20
2019-05-16T19:50:06.986Z,14.20
2019-05-16T19:52:36.613Z,14.30
2019-05-16T19:55:07.496Z,14.20
2019-05-16T19:57:37.379Z,14.20
2019-05-16T20:00:07.965Z,14.20
2019-05-16T20:02:36.806Z,14.10
2019-05-16T20:05:09.283Z,14.10
2019-05-16T20:07:37.753Z,13.90
2019-05-16T20:10:09.666Z,13.90
2019-05-16T20:12:37.787Z,13.80
2019-05-16T20:15:11.662Z,13.80
2019-05-16T20:17:50.886Z,13.60
2019-05-16T20:20:08.874Z,13.50
2019-05-16T20:22:37.258Z,13.50
2019-05-16T20:25:07.565Z,13.50
2019-05-16T20:27:36.822Z,13.40
2019-05-16T20:30:06.996Z,13.30
2019-05-16T20:32:37.199Z,13.30
2019-05-16T20:35:08.934Z,13.30
2019-05-16T20:37:37.623Z,13.40
2019-05-16T20:40:09.262Z,13.50
2019-05-16T20:42:37.785Z,13.50
2019-05-16T20:45:08.228Z,13.50
2019-05-16T20:47:36.695Z,13.50
2019-05-16T20:50:08.524Z,13.50
2019-05-16T20:52:37.806Z,13.40
2019-05-16T20:55:07.743Z,13.40
2019-05-16T20:57:37.606Z,13.40
2019-05-16T21:00:07.439Z,13.50
2019-05-16T21:02:37.826Z,13.50
2019-05-16T21:05:06.779Z,13.40
2019-05-16T21:07:37.491Z,13.40
2019-05-16T21:10:08.753Z,13.30
2019-05-16T21:12:40.409Z,13.30
2019-05-16T21:15:08.597Z,13.30
2019-05-16T21:17:37.141Z,13.40
2019-05-16T21:20:07.379Z,13.40
2019-05-16T21:22:37.069Z,13.40
2019-05-16T21:25:06.161Z,13.40
2019-05-16T21:27:37.523Z,13.40
2019-05-16T21:30:07.488Z,13.40
2019-05-16T21:32:36.662Z,13.50
2019-05-16T21:35:08.346Z,13.40
2019-05-16T21:37:37.419Z,13.40
2019-05-16T21:40:08.933Z,13.30
2019-05-16T21:42:37.339Z,13.20
2019-05-16T21:45:07.787Z,13.20
2019-05-16T21:47:36.985Z,13.20
2019-05-16T21:50:07.971Z,13.20
2019-05-16T21:52:36.530Z,13.20
2019-05-16T21:55:09.149Z,13.20
2019-05-16T21:57:38.064Z,13.10
2019-05-16T22:00:14.228Z,13.00
2019-05-16T22:02:42.622Z,13.00
2019-05-16T22:05:11.083Z,12.80
2019-05-16T22:07:39.499Z,12.60
2019-05-16T22:10:08.036Z,12.60
2019-05-16T22:12:38.455Z,12.50
2019-05-16T22:15:07.053Z,12.30
2019-05-16T22:17:36.694Z,12.20
2019-05-16T22:20:07.138Z,12.20
2019-05-16T22:22:38.164Z,12.10
2019-05-16T22:25:07.643Z,11.90
2019-05-16T22:27:36.320Z,11.70
2019-05-16T22:30:07.852Z,11.50
2019-05-16T22:32:36.397Z,11.40
2019-05-16T22:35:07.916Z,11.30
2019-05-16T22:37:48.848Z,11.20
2019-05-16T22:40:06.927Z,11.20
2019-05-16T22:42:37.373Z,11.10
2019-05-16T22:45:10.489Z,10.90
2019-05-16T22:47:38.895Z,10.70
2019-05-16T22:50:08.126Z,10.60
2019-05-16T22:52:36.873Z,10.40
2019-05-16T22:55:08.376Z,10.40
2019-05-16T22:57:36.793Z,10.20
2019-05-16T23:00:09.826Z,10.20
2019-05-16T23:02:38.495Z,10.10
2019-05-16T23:05:07.446Z,10.00
2019-05-16T23:07:36.775Z,10.00
2019-05-16T23:10:07.181Z,10.00
2019-05-16T23:12:37.196Z,9.90
2019-05-16T23:15:06.804Z,9.90
2019-05-16T23:17:37.335Z,9.70
2019-05-16T23:20:06.467Z,9.60
2019-05-16T23:22:36.750Z,9.60
2019-05-16T23:25:06.598Z,9.50
2019-05-16T23:27:36.802Z,9.40
2019-05-16T23:30:10.554Z,9.40
2019-05-16T23:32:38.978Z,9.40
2019-05-16T23:35:07.730Z,9.40
2019-05-16T23:37:37.060Z,9.30
2019-05-16T23:40:06.700Z,9.20
2019-05-16T23:42:37.146Z,9.20
2019-05-16T23:45:09.037Z,9.10
2019-05-16T23:47:37.720Z,9.10
2019-05-16T23:50:07.572Z,9.00
2019-05-16T23:52:36.966Z,8.90
2019-05-16T23:55:09.499Z,9.00
2019-05-16T23:57:37.999Z,8.90
